Time;durP1;ratioP1;P1;durP2;ratioP2;P2;SDS_P1;SDS_P2;PMS_P1;PMS_P2;Temp;Humidity;BMP_temperature;BMP_pressure;BME280_temperature;BME280_humidity;BME280_pressure;Samples;Min_cycle;Max_cycle;Signal;HPM_P1;HPM_P2
2022/10/20 00:01:37;;;;;;;14.90;13.70;;;;;;;20.63;39.48;95505.06;6107944;28;103150;-63
2022/10/20 00:04:41;;;;;;;13.70;12.70;;;;;;;20.61;40.00;95499.22;6106503;28;103027;-63
2022/10/20 00:07:44;;;;;;;14.43;13.33;;;;;;;20.64;39.78;95501.31;6099357;28;103121;-62
2022/10/20 00:10:53;;;;;;;15.07;13.97;;;;;;;20.58;40.18;95500.59;6112605;28;103329;-63
2022/10/20 00:13:58;;;;;;;14.07;12.90;;;;;;;20.58;40.34;95499.81;6103106;28;106847;-62
2022/10/20 00:17:01;;;;;;;14.40;13.30;;;;;;;20.57;40.39;95503.53;6111662;28;103034;-62
2022/10/20 00:20:06;;;;;;;15.10;14.00;;;;;;;20.56;40.36;95510.72;6110869;28;103441;-63
2022/10/20 00:23:09;;;;;;;14.70;13.50;;;;;;;20.57;40.41;95506.19;6112660;28;103176;-64
2022/10/20 00:26:15;;;;;;;15.27;14.17;;;;;;;20.59;40.26;95506.72;6102050;28;103295;-63
2022/10/20 00:29:18;;;;;;;15.00;13.90;;;;;;;20.56;40.42;95510.72;6111342;28;103639;-64
2022/10/20 00:32:21;;;;;;;15.10;13.50;;;;;;;20.55;40.45;95503.84;6111848;28;103339;-66
2022/10/20 00:35:26;;;;;;;14.63;13.53;;;;;;;20.54;40.69;95494.28;6108531;28;103146;-63
2022/10/20 00:38:29;;;;;;;14.10;13.07;;;;;;;20.54;40.47;95496.13;6100461;28;104283;-62
2022/10/20 00:41:33;;;;;;;14.63;13.50;;;;;;;20.53;40.60;95479.41;6111391;28;104365;-65
2022/10/20 00:44:49;;;;;;;14.10;13.00;;;;;;;20.52;40.51;95487.66;6096066;28;103447;-63
2022/10/20 00:47:55;;;;;;;14.70;13.60;;;;;;;20.52;40.74;95477.03;6105971;28;103354;-66
2022/10/20 00:51:00;;;;;;;14.43;13.33;;;;;;;20.55;40.21;95479.13;6106412;28;102900;-62
2022/10/20 00:54:07;;;;;;;14.20;13.10;;;;;;;20.52;40.47;95471.72;6111201;28;103197;-62
2022/10/20 00:57:10;;;;;;;13.37;12.43;;;;;;;20.49;40.32;95480.22;6111364;28;103219;-62
2022/10/20 01:00:15;;;;;;;13.10;12.00;;;;;;;20.49;40.62;95474.91;6100464;28;103171;-63
2022/10/20 01:03:22;;;;;;;14.03;12.83;;;;;;;20.46;40.74;95481.59;6111120;28;103098;-62
2022/10/20 01:06:27;;;;;;;13.27;12.37;;;;;;;20.49;40.25;95483.69;6111041;28;103329;-62
2022/10/20 01:09:31;;;;;;;14.40;13.40;;;;;;;20.47;40.50;95485.84;6110848;28;103252;-63
2022/10/20 01:12:44;;;;;;;13.17;12.17;;;;;;;20.49;40.64;95493.53;6101797;28;106798;-63
2022/10/20 01:15:56;;;;;;;13.37;12.37;;;;;;;20.48;40.39;95479.44;6111344;28;104009;-63
2022/10/20 01:19:07;;;;;;;13.43;12.43;;;;;;;20.49;40.34;95485.53;6109368;28;103138;-63
2022/10/20 01:22:41;;;;;;;13.13;12.13;;;;;;;20.48;40.32;95478.66;6101535;28;104205;-63
2022/10/20 01:25:57;;;;;;;12.03;11.13;;;;;;;20.47;40.28;95490.34;6115242;28;103238;-63
2022/10/20 01:29:09;;;;;;;12.60;11.70;;;;;;;20.48;39.99;95487.41;6113542;28;104327;-63
2022/10/20 01:32:20;;;;;;;12.27;11.37;;;;;;;20.47;40.19;95485.03;6115245;28;103228;-63
2022/10/20 01:35:35;;;;;;;12.80;11.80;;;;;;;20.48;40.04;95482.09;6104051;28;103291;-63
2022/10/20 01:38:44;;;;;;;12.40;11.40;;;;;;;20.47;40.18;95480.50;6114276;28;103087;-62
2022/10/20 01:41:53;;;;;;;12.37;11.40;;;;;;;20.44;40.16;95490.94;6112003;28;104132;-63
2022/10/20 01:45:04;;;;;;;12.27;11.37;;;;;;;20.43;40.25;95476.84;6105880;28;104120;-63
2022/10/20 01:48:09;;;;;;;11.40;10.60;;;;;;;20.42;40.20;95482.44;6108191;28;103225;-65
2022/10/20 01:51:12;;;;;;;12.00;10.97;;;;;;;20.39;40.40;95483.81;6115213;28;104098;-64
2022/10/20 01:54:27;;;;;;;11.37;10.57;;;;;;;20.37;40.44;95485.19;6113374;28;103273;-64
2022/10/20 01:57:46;;;;;;;12.10;11.17;;;;;;;20.39;40.13;95489.13;6103785;28;104111;-64
2022/10/20 02:00:52;;;;;;;11.50;10.70;;;;;;;20.40;40.21;95496.03;6114067;28;103195;-64
2022/10/20 02:03:59;;;;;;;11.33;10.53;;;;;;;20.40;40.25;95505.88;6113386;28;103006;-64
2022/10/20 02:07:09;;;;;;;11.40;10.60;;;;;;;20.38;40.05;95502.72;6110352;28;105818;-66
2022/10/20 02:10:17;;;;;;;11.83;10.93;;;;;;;20.39;40.20;95504.28;6108357;28;103112;-64
2022/10/20 02:13:21;;;;;;;10.60;9.80;;;;;;;20.38;40.09;95513.34;6114452;28;104234;-64
2022/10/20 02:16:29;;;;;;;11.07;10.17;;;;;;;20.37;40.24;95509.88;6114462;28;103242;-64
2022/10/20 02:19:38;;;;;;;10.80;9.97;;;;;;;20.37;40.09;95517.06;6103565;28;103095;-64
2022/10/20 02:22:41;;;;;;;11.00;10.20;;;;;;;20.38;40.07;95510.69;6114368;28;104384;-64
2022/10/20 02:25:46;;;;;;;11.13;10.23;;;;;;;20.36;40.33;95515.50;6112973;28;103282;-63
2022/10/20 02:28:55;;;;;;;11.23;10.37;;;;;;;20.38;40.10;95516.78;6114550;28;104214;-64
2022/10/20 02:32:00;;;;;;;10.60;9.73;;;;;;;20.34;40.22;95518.44;6103231;28;105161;-64
2022/10/20 02:35:04;;;;;;;10.30;9.60;;;;;;;20.34;40.26;95522.97;6111916;28;103099;-63
2022/10/20 02:38:08;;;;;;;10.97;10.07;;;;;;;20.32;40.17;95524.00;6114498;28;102715;-64
2022/10/20 02:41:11;;;;;;;10.73;9.93;;;;;;;20.31;40.40;95530.41;6113874;28;103838;-65
2022/10/20 02:44:14;;;;;;;9.90;9.20;;;;;;;20.34;40.28;95538.91;6103402;28;103229;-63
2022/10/20 02:47:19;;;;;;;10.77;9.90;;;;;;;20.34;40.21;95534.38;6113963;28;104162;-65
2022/10/20 02:50:22;;;;;;;10.00;9.20;;;;;;;20.29;40.21;95532.53;6113365;28;104101;-63
2022/10/20 02:53:25;;;;;;;10.93;10.13;;;;;;;20.34;40.10;95545.00;6109056;28;104047;-64
2022/10/20 02:56:28;;;;;;;10.83;10.07;;;;;;;20.31;40.21;95546.34;6106918;28;103116;-64
2022/10/20 02:59:33;;;;;;;10.13;9.33;;;;;;;20.31;40.30;95543.69;6113208;28;103678;-65
2022/10/20 03:02:37;;;;;;;9.60;8.90;;;;;;;20.31;40.12;95540.22;6113036;28;104197;-63
2022/10/20 03:05:43;;;;;;;10.20;9.40;;;;;;;20.31;40.24;95538.38;6103576;28;103721;-64
2022/10/20 03:08:46;;;;;;;10.50;9.70;;;;;;;20.35;40.10;95540.50;6114165;28;103264;-64
2022/10/20 03:11:49;;;;;;;9.67;8.87;;;;;;;20.35;40.58;95540.50;6112572;28;103009;-63
2022/10/20 03:14:52;;;;;;;10.30;9.50;;;;;;;20.31;40.94;95548.22;6113468;28;103260;-65
2022/10/20 03:17:56;;;;;;;11.57;10.43;;;;;;;20.27;40.76;95550.63;6102153;28;103592;-63
2022/10/20 03:20:59;;;;;;;11.73;10.70;;;;;;;20.28;40.46;95549.56;6112968;28;104496;-63
2022/10/20 03:24:02;;;;;;;10.43;9.60;;;;;;;20.25;40.43;95555.44;6110968;28;103111;-63
2022/10/20 03:27:05;;;;;;;9.63;8.90;;;;;;;20.26;40.21;95551.72;6109914;28;104184;-64
2022/10/20 03:30:10;;;;;;;10.20;9.50;;;;;;;20.27;40.30;95557.81;6103068;28;103425;-63
2022/10/20 03:33:14;;;;;;;10.80;9.90;;;;;;;20.25;40.25;95558.09;6111241;28;103284;-63
2022/10/20 03:36:17;;;;;;;11.73;10.77;;;;;;;20.26;40.14;95567.66;6113144;28;103061;-64
2022/10/20 03:39:20;;;;;;;11.00;10.07;;;;;;;20.26;39.97;95554.38;6107945;28;104022;-63
2022/10/20 03:42:23;;;;;;;10.10;9.40;;;;;;;20.31;40.34;95551.66;6106316;28;103631;-63
2022/10/20 03:45:26;;;;;;;9.90;9.10;;;;;;;20.27;40.33;95555.97;6112017;28;104490;-63
2022/10/20 03:48:31;;;;;;;10.80;9.80;;;;;;;20.28;40.39;95560.19;6112755;28;103105;-63
2022/10/20 03:51:34;;;;;;;10.17;9.17;;;;;;;20.24;40.81;95561.84;6100447;28;103416;-64
2022/10/20 03:54:39;;;;;;;12.90;11.70;;;;;;;20.29;40.67;95558.34;6110379;28;103405;-64
2022/10/20 03:57:42;;;;;;;10.97;10.07;;;;;;;20.31;41.11;95564.94;6111063;28;103149;-66
2022/10/20 04:00:46;;;;;;;10.17;9.37;;;;;;;20.31;40.42;95562.28;6112232;28;103219;-66
2022/10/20 04:03:50;;;;;;;11.07;10.10;;;;;;;20.30;40.84;95570.53;6101085;28;104910;-67
2022/10/20 04:06:53;;;;;;;9.93;9.23;;;;;;;20.24;41.09;95571.66;6111284;28;103258;-67
2022/10/20 04:09:57;;;;;;;10.30;9.50;;;;;;;20.38;41.88;95574.47;6111038;28;103272;-67
2022/10/20 04:13:00;;;;;;;10.70;9.80;;;;;;;20.37;40.98;95576.34;6110945;28;103248;-67
2022/10/20 04:16:03;;;;;;;16.13;9.90;;;;;;;20.38;41.11;95569.94;6104273;28;103654;-65
2022/10/20 04:19:08;;;;;;;10.60;9.70;;;;;;;20.48;40.78;95583.13;6111020;28;104243;-66
2022/10/20 04:22:11;;;;;;;13.50;10.40;;;;;;;20.39;41.04;95573.41;6110059;28;104168;-66
2022/10/20 04:25:14;;;;;;;10.93;9.93;;;;;;;20.34;40.67;95576.91;6103275;28;103439;-66
2022/10/20 04:28:19;;;;;;;11.57;10.37;;;;;;;20.30;40.89;95578.50;6108230;28;103237;-64
2022/10/20 04:31:22;;;;;;;10.97;9.97;;;;;;;20.27;40.82;95577.22;6108355;28;103165;-64
2022/10/20 04:34:27;;;;;;;11.20;10.10;;;;;;;20.23;40.81;95573.50;6110849;28;103107;-64
2022/10/20 04:37:30;;;;;;;10.60;9.60;;;;;;;20.20;41.38;95576.72;6099813;28;103244;-69
2022/10/20 04:40:33;;;;;;;10.20;9.40;;;;;;;20.17;40.74;95573.84;6108642;28;103230;-68
2022/10/20 04:43:36;;;;;;;10.97;10.00;;;;;;;20.20;40.79;95581.25;6109731;28;103296;-69
2022/10/20 04:46:39;;;;;;;10.00;9.30;;;;;;;20.22;40.44;95571.13;6108669;28;103100;-69
2022/10/20 04:49:44;;;;;;;10.60;9.70;;;;;;;20.18;40.54;95581.53;6100423;28;103707;-69
2022/10/20 04:52:47;;;;;;;10.17;9.37;;;;;;;20.18;40.46;95578.88;6110308;28;103140;-69
2022/10/20 04:55:54;;;;;;;10.50;9.70;;;;;;;20.19;40.24;95588.44;6111047;28;103092;-69
2022/10/20 04:58:58;;;;;;;9.80;8.93;;;;;;;20.17;40.11;95593.25;6109826;28;103944;-69
2022/10/20 05:02:01;;;;;;;9.40;8.70;;;;;;;20.16;40.36;95591.63;6109383;28;103130;-69
2022/10/20 05:05:07;;;;;;;9.67;8.77;;;;;;;20.15;40.17;95589.25;6115982;28;103224;-69
2022/10/20 05:08:10;;;;;;;10.80;9.37;;;;;;;20.17;40.36;95605.72;6114686;28;103364;-69
2022/10/20 05:11:14;;;;;;;10.13;9.33;;;;;;;20.16;40.17;95604.91;6104846;28;103496;-68
2022/10/20 05:14:17;;;;;;;10.33;9.10;;;;;;;20.15;40.20;95616.63;6115557;28;103082;-67
2022/10/20 05:17:20;;;;;;;9.73;8.93;;;;;;;20.16;41.78;95612.09;6115193;28;103114;-63
2022/10/20 05:20:25;;;;;;;9.77;8.97;;;;;;;20.11;41.52;95614.81;6116348;28;103664;-62
2022/10/20 05:23:27;;;;;;;8.97;8.10;;;;;;;20.06;41.14;95620.97;6105339;28;104473;-63
2022/10/20 05:26:35;;;;;;;9.20;8.40;;;;;;;20.05;41.30;95623.91;6115981;28;103223;-62
2022/10/20 05:29:38;;;;;;;9.67;8.87;;;;;;;20.06;41.18;95634.25;6114911;28;103087;-63
2022/10/20 05:32:41;;;;;;;9.50;8.67;;;;;;;20.05;40.81;95637.19;6113006;28;103208;-67
2022/10/20 05:35:46;;;;;;;9.73;8.93;;;;;;;20.07;40.98;95653.63;6108643;28;103092;-62
2022/10/20 05:38:50;;;;;;;10.33;9.53;;;;;;;20.06;41.01;95649.38;6115010;28;103151;-62
2022/10/20 05:41:53;;;;;;;10.20;9.40;;;;;;;20.03;40.85;95654.19;6115451;28;103184;-63
2022/10/20 05:44:56;;;;;;;10.07;9.20;;;;;;;20.06;40.98;95665.31;6105829;28;103265;-62
2022/10/20 05:47:59;;;;;;;10.50;9.47;;;;;;;20.05;40.79;95672.50;6114508;28;103279;-61
2022/10/20 05:51:12;;;;;;;9.27;8.60;;;;;;;20.03;40.86;95678.09;6115913;28;103634;-62
2022/10/20 05:54:17;;;;;;;9.83;9.13;;;;;;;20.03;41.10;95687.94;6114964;28;103786;-62
2022/10/20 05:57:20;;;;;;;9.63;8.63;;;;;;;20.04;40.92;95692.19;6105013;28;103373;-61
2022/10/20 06:00:29;;;;;;;9.83;9.13;;;;;;;20.02;40.83;95691.66;6113626;28;103635;-62
2022/10/20 06:03:32;;;;;;;10.60;9.70;;;;;;;20.10;40.73;95699.03;6114752;28;103049;-62
2022/10/20 06:06:37;;;;;;;9.67;8.87;;;;;;;20.15;40.76;95706.16;6114699;28;103242;-63
2022/10/20 06:09:40;;;;;;;10.27;9.37;;;;;;;20.19;40.93;95712.53;6104650;28;104200;-63
2022/10/20 06:12:43;;;;;;;9.80;9.00;;;;;;;20.22;40.98;95719.94;6114470;28;103134;-62
2022/10/20 06:15:48;;;;;;;10.13;9.30;;;;;;;20.29;40.84;95721.25;6114545;28;103122;-62
2022/10/20 06:18:51;;;;;;;10.47;9.67;;;;;;;20.34;40.61;95716.97;6105502;28;103165;-64
2022/10/20 06:21:56;;;;;;;10.10;9.30;;;;;;;20.42;40.58;95729.66;6114250;28;103374;-62
2022/10/20 06:25:01;;;;;;;10.80;9.90;;;;;;;20.53;40.33;95737.28;6114423;28;102990;-69
2022/10/20 06:28:04;;;;;;;10.27;9.47;;;;;;;20.70;40.36;95733.44;6114936;28;103574;-69
2022/10/20 06:31:11;;;;;;;9.57;8.87;;;;;;;20.81;39.85;95730.38;6103273;28;105719;-69
2022/10/20 06:34:16;;;;;;;9.13;8.30;;;;;;;20.99;39.59;95730.75;6114452;28;102743;-69
2022/10/20 06:37:20;;;;;;;8.73;8.07;;;;;;;21.06;39.58;95737.38;6114353;28;103662;-69
2022/10/20 06:40:23;;;;;;;9.30;8.53;;;;;;;21.12;39.69;95735.44;6114483;28;103152;-69
2022/10/20 06:43:27;;;;;;;9.03;8.20;;;;;;;21.20;39.62;95726.84;6104274;28;103311;-69
2022/10/20 06:46:32;;;;;;;8.73;8.03;;;;;;;21.26;39.47;95733.69;6113762;28;103136;-69
2022/10/20 06:49:35;;;;;;;10.10;9.20;;;;;;;21.31;39.47;95733.63;6114680;28;103238;-69
2022/10/20 06:52:39;;;;;;;10.13;9.33;;;;;;;21.35;39.65;95734.66;6108471;28;103384;-69
2022/10/20 06:55:42;;;;;;;11.20;9.60;;;;;;;21.42;39.47;95735.09;6109158;28;103092;-69
2022/10/20 06:58:47;;;;;;;9.73;8.93;;;;;;;21.47;39.48;95744.91;6114442;28;103103;-69
2022/10/20 07:01:51;;;;;;;9.00;8.40;;;;;;;21.50;39.48;95745.13;6112974;28;103258;-68
2022/10/20 07:04:54;;;;;;;10.90;10.00;;;;;;;21.57;39.23;95750.13;6103640;28;103048;-68
2022/10/20 07:07:59;;;;;;;10.27;9.37;;;;;;;21.59;39.09;95749.84;6112502;28;103351;-68
2022/10/20 07:11:04;;;;;;;10.03;9.23;;;;;;;21.63;39.40;95746.31;6114534;28;103442;-68
2022/10/20 07:14:08;;;;;;;10.10;9.33;;;;;;;21.68;39.11;95756.13;6113088;28;103324;-68
2022/10/20 07:17:11;;;;;;;9.77;9.07;;;;;;;21.70;39.53;95751.31;6104258;28;103100;-69
2022/10/20 07:20:14;;;;;;;10.43;9.60;;;;;;;21.71;39.48;95747.56;6113067;28;103213;-67
2022/10/20 07:23:19;;;;;;;9.93;9.23;;;;;;;21.79;39.28;95757.56;6113366;28;102994;-69
2022/10/20 07:26:23;;;;;;;10.40;9.57;;;;;;;21.84;39.37;95756.72;6109020;28;103288;-69
2022/10/20 07:29:26;;;;;;;10.83;9.83;;;;;;;21.85;38.89;95743.16;6107473;28;103239;-69
2022/10/20 07:32:30;;;;;;;10.00;9.20;;;;;;;21.89;39.10;95741.50;6112952;28;103051;-69
2022/10/20 07:35:33;;;;;;;9.30;8.60;;;;;;;21.94;38.67;95746.75;6113153;28;103756;-69
2022/10/20 07:38:38;;;;;;;9.80;8.90;;;;;;;21.96;38.64;95746.44;6104088;28;103366;-69
2022/10/20 07:41:44;;;;;;;10.90;9.77;;;;;;;22.00;39.02;95748.25;6113192;28;103243;-69
2022/10/20 07:44:47;;;;;;;8.97;8.37;;;;;;;22.00;39.18;95753.56;6112563;28;103036;-68
2022/10/20 07:47:50;;;;;;;9.80;9.00;;;;;;;22.01;38.87;95744.53;6113303;28;103233;-68
2022/10/20 07:50:53;;;;;;;9.83;8.97;;;;;;;22.04;38.79;95735.97;6103037;28;103241;-69
2022/10/20 07:54:00;;;;;;;9.77;8.90;;;;;;;22.05;38.85;95732.22;6113268;28;103636;-69
2022/10/20 07:57:03;;;;;;;9.90;9.10;;;;;;;22.06;38.35;95731.13;6112872;28;103267;-68
2022/10/20 08:00:08;;;;;;;9.43;8.60;;;;;;;22.10;38.48;95740.13;6112376;28;103223;-68
2022/10/20 08:03:11;;;;;;;9.00;8.33;;;;;;;22.13;38.53;95740.63;6101930;28;103628;-68
2022/10/20 08:06:14;;;;;;;10.10;8.90;;;;;;;22.14;37.99;95736.88;6112673;28;102850;-69
2022/10/20 08:09:19;;;;;;;8.73;7.83;;;;;;;22.16;38.46;95738.16;6112732;28;103066;-69
2022/10/20 08:12:22;;;;;;;8.47;7.87;;;;;;;22.15;38.38;95739.25;6104573;28;103175;-69
2022/10/20 08:15:25;;;;;;;8.80;8.00;;;;;;;22.17;38.46;95750.41;6110704;28;103258;-69
2022/10/20 08:18:28;;;;;;;9.33;8.53;;;;;;;22.21;38.42;95740.78;6113371;28;104284;-69
2022/10/20 08:21:36;;;;;;;8.60;7.90;;;;;;;22.21;38.53;95738.13;6111226;28;103761;-69
2022/10/20 08:24:41;;;;;;;9.80;8.30;;;;;;;22.23;37.89;95735.16;6102149;28;103265;-69
2022/10/20 08:27:44;;;;;;;8.50;7.90;;;;;;;22.23;37.92;95737.81;6112788;28;105990;-69
2022/10/20 08:30:47;;;;;;;8.20;7.60;;;;;;;22.27;37.81;95738.81;6112723;28;104021;-69
2022/10/20 08:33:51;;;;;;;8.77;7.97;;;;;;;22.26;38.39;95730.03;6111359;28;103246;-69
2022/10/20 08:36:55;;;;;;;8.80;8.00;;;;;;;22.23;38.29;95727.16;6101924;28;103337;-69
2022/10/20 08:39:59;;;;;;;7.93;7.40;;;;;;;22.25;38.03;95736.44;6112315;28;103207;-69
2022/10/20 08:43:02;;;;;;;8.27;7.67;;;;;;;22.28;37.91;95730.53;6111492;28;103128;-68
2022/10/20 08:46:06;;;;;;;8.80;8.10;;;;;;;22.26;37.52;95730.03;6107280;28;103218;-68
2022/10/20 08:49:19;;;;;;;7.60;7.00;;;;;;;22.20;37.57;95717.88;6107160;28;104347;-69
2022/10/20 08:52:24;;;;;;;8.67;7.87;;;;;;;22.22;37.45;95731.69;6111795;28;103277;-69
2022/10/20 08:55:31;;;;;;;8.53;7.93;;;;;;;22.21;37.91;95724.00;6111854;28;103063;-69
2022/10/20 08:58:34;;;;;;;7.50;6.97;;;;;;;22.20;38.01;95723.19;6100600;28;103050;-69
2022/10/20 09:01:37;;;;;;;8.03;7.33;;;;;;;22.17;37.92;95726.41;6112149;28;103138;-69
2022/10/20 09:04:46;;;;;;;7.40;6.80;;;;;;;22.16;38.02;95721.38;6111764;28;103453;-69
2022/10/20 09:07:50;;;;;;;7.40;6.90;;;;;;;22.15;37.96;95725.91;6111414;28;103060;-69
2022/10/20 09:10:55;;;;;;;8.00;7.20;;;;;;;22.15;37.88;95720.59;6103070;28;103416;-69
2022/10/20 09:13:58;;;;;;;7.47;6.97;;;;;;;22.13;38.01;95729.97;6111126;28;103283;-69
2022/10/20 09:17:02;;;;;;;6.67;6.17;;;;;;;22.14;37.58;95728.88;6112392;28;107474;-69
2022/10/20 09:20:12;;;;;;;7.40;6.90;;;;;;;22.16;37.11;95729.38;6106087;28;103113;-69
2022/10/20 09:23:17;;;;;;;6.57;6.10;;;;;;;22.16;37.33;95737.38;6107456;28;103669;-69
2022/10/20 09:26:44;;;;;;;6.80;6.30;;;;;;;22.19;37.12;95736.81;6111853;28;103164;-69
2022/10/20 09:30:14;;;;;;;6.53;5.97;;;;;;;22.20;37.39;95730.41;6111625;28;105303;-69
2022/10/20 09:33:23;;;;;;;7.17;6.13;;;;;;;22.21;37.21;95735.44;6101199;28;104251;-69
2022/10/20 09:36:30;;;;;;;6.47;5.87;;;;;;;22.22;37.52;95731.69;6110269;28;103272;-69
2022/10/20 09:39:43;;;;;;;6.30;5.70;;;;;;;22.28;37.56;95735.06;6111591;28;103254;-69
2022/10/20 09:42:52;;;;;;;6.33;5.93;;;;;;;22.28;37.03;95730.53;6106617;28;102738;-69
2022/10/20 09:46:04;;;;;;;7.90;6.67;;;;;;;22.27;37.30;95725.50;6110596;28;103127;-69
2022/10/20 09:49:08;;;;;;;6.00;5.60;;;;;;;22.30;37.10;95724.91;6116107;28;103472;-69
2022/10/20 09:52:18;;;;;;;6.03;5.60;;;;;;;22.29;36.75;95724.13;6115490;28;103596;-69
2022/10/20 09:55:28;;;;;;;6.60;6.10;;;;;;;22.34;37.04;95712.56;6105043;28;103632;-69
2022/10/20 09:58:36;;;;;;;6.07;5.67;;;;;;;22.33;37.03;95717.13;6114984;28;103302;-69
2022/10/20 10:01:53;;;;;;;6.70;6.20;;;;;;;22.31;37.23;95721.94;6115093;28;103034;-68
2022/10/20 10:05:18;;;;;;;5.80;5.40;;;;;;;22.34;36.74;95720.56;6115058;28;103320;-69
2022/10/20 10:08:23;;;;;;;5.90;5.50;;;;;;;22.34;36.58;95723.25;6108606;28;103253;-69
2022/10/20 10:11:32;;;;;;;6.00;5.60;;;;;;;22.31;36.88;95716.63;6115225;28;103220;-69
2022/10/20 10:14:37;;;;;;;5.53;5.03;;;;;;;22.32;36.95;95704.06;6114914;28;104249;-69
2022/10/20 10:17:42;;;;;;;6.17;5.57;;;;;;;22.31;36.36;95707.81;6105388;28;103113;-69
2022/10/20 10:20:46;;;;;;;5.90;5.40;;;;;;;22.31;36.34;95702.50;6114521;28;103079;-69
2022/10/20 10:23:54;;;;;;;5.40;4.90;;;;;;;22.26;37.16;95703.38;6115094;28;103188;-69
2022/10/20 10:26:57;;;;;;;5.80;5.40;;;;;;;22.27;36.64;95699.63;6114165;28;103699;-69
2022/10/20 10:33:29;;;;;;;5.50;5.10;;;;;;;22.27;36.50;95699.63;6242372;27;102696;-68
2022/10/20 10:36:35;;;;;;;5.03;4.67;;;;;;;22.24;36.25;95697.53;6207737;28;104021;-69
2022/10/20 10:39:38;;;;;;;5.00;4.60;;;;;;;22.23;36.69;95687.97;6203548;28;103221;-69
2022/10/20 10:43:16;;;;;;;5.40;4.53;;;;;;;22.22;36.64;95686.38;6202015;28;103089;-69
2022/10/20 10:46:26;;;;;;;5.00;4.60;;;;;;;22.21;36.12;95689.34;6207704;28;102970;-68
2022/10/20 10:49:46;;;;;;;4.87;4.50;;;;;;;22.17;36.24;95674.97;6207417;28;102933;-69
2022/10/20 10:52:58;;;;;;;5.27;4.87;;;;;;;22.15;36.79;95671.81;6196786;28;102872;-69
2022/10/20 10:56:13;;;;;;;5.80;5.27;;;;;;;22.12;36.47;95678.53;6207150;28;102854;-69
2022/10/20 10:59:22;;;;;;;5.47;4.97;;;;;;;22.11;36.54;95677.72;6207836;28;103031;-68
2022/10/20 11:03:03;;;;;;;4.93;4.53;;;;;;;22.11;36.33;95674.28;6202275;28;103227;-68
2022/10/20 11:06:32;;;;;;;5.53;5.13;;;;;;;22.05;36.59;95676.25;6206919;28;103167;-69
2022/10/20 11:09:42;;;;;;;4.77;4.47;;;;;;;22.05;36.28;95672.78;6207244;28;103067;-68
2022/10/20 11:12:59;;;;;;;4.50;4.20;;;;;;;22.04;36.32;95665.88;6206647;28;103105;-69
2022/10/20 11:16:15;;;;;;;4.87;4.57;;;;;;;22.03;36.06;95658.97;6197120;28;102976;-69
2022/10/20 11:19:36;;;;;;;4.97;4.60;;;;;;;22.00;35.70;95654.97;6206358;28;103014;-69
2022/10/20 11:22:52;;;;;;;4.70;4.33;;;;;;;21.99;36.12;95649.94;6206880;28;102921;-69
2022/10/20 11:26:02;;;;;;;4.90;4.60;;;;;;;21.97;35.95;95652.91;6196854;28;103389;-69
2022/10/20 11:29:11;;;;;;;4.70;4.40;;;;;;;21.93;35.49;95651.91;6206723;28;103177;-69
2022/10/20 11:32:25;;;;;;;4.50;4.00;;;;;;;21.96;36.01;95653.19;6206934;28;103736;-69
2022/10/20 11:35:35;;;;;;;4.80;4.40;;;;;;;21.98;36.16;95646.47;6206771;28;103237;-67
2022/10/20 11:38:46;;;;;;;4.57;4.17;;;;;;;21.99;35.80;95634.72;6195766;28;103213;-69
2022/10/20 11:41:53;;;;;;;4.47;4.17;;;;;;;22.00;36.11;95641.66;6206262;28;105639;-69
2022/10/20 11:44:59;;;;;;;4.13;3.83;;;;;;;21.99;36.86;95634.72;6190463;28;105451;-68
2022/10/20 11:48:12;;;;;;;4.10;3.80;;;;;;;21.97;36.43;95634.25;6179951;28;103119;-68
2022/10/20 11:51:35;;;;;;;4.33;4.03;;;;;;;22.03;36.79;95622.44;6189809;28;103177;-68
2022/10/20 11:54:52;;;;;;;4.73;4.43;;;;;;;21.97;36.90;95626.25;6189556;28;103144;-68
2022/10/20 11:58:10;;;;;;;4.60;4.30;;;;;;;21.89;36.91;95621.59;6189253;28;103130;-68
2022/10/20 12:01:29;;;;;;;5.10;4.60;;;;;;;21.88;36.67;95621.88;6179636;28;102913;-69
2022/10/20 12:04:46;;;;;;;4.70;4.30;;;;;;;21.86;36.83;95616.84;6189975;28;102979;-69
2022/10/20 12:08:33;;;;;;;5.00;4.60;;;;;;;21.86;36.63;95616.84;6189409;28;103129;-68
2022/10/20 12:11:48;;;;;;;4.30;4.00;;;;;;;21.82;36.49;95615.81;6132662;28;103125;-68
2022/10/20 12:14:57;;;;;;;4.27;3.97;;;;;;;21.73;36.06;95615.66;6189350;28;103818;-68
2022/10/20 12:18:05;;;;;;;5.33;3.90;;;;;;;21.69;36.23;95604.00;6189009;28;103175;-69
2022/10/20 12:21:10;;;;;;;4.00;3.70;;;;;;;21.68;36.35;95612.28;6189669;28;103075;-68
2022/10/20 12:24:33;;;;;;;4.13;3.90;;;;;;;21.63;36.10;95609.69;6178629;28;103512;-68
2022/10/20 12:27:38;;;;;;;4.07;3.77;;;;;;;21.65;36.24;95615.50;6188987;28;103166;-68
2022/10/20 12:30:44;;;;;;;4.30;4.00;;;;;;;21.59;36.17;95609.47;6188872;28;103119;-68
2022/10/20 12:34:02;;;;;;;4.73;4.43;;;;;;;21.57;35.63;95616.97;6178855;28;103164;-68
2022/10/20 12:37:08;;;;;;;4.23;3.93;;;;;;;21.58;35.75;95607.09;6189091;28;103090;-68
2022/10/20 12:40:26;;;;;;;4.50;4.20;;;;;;;21.58;35.68;95601.78;6188165;28;103085;-69
2022/10/20 12:43:48;;;;;;;4.57;4.20;;;;;;;21.55;35.94;95607.69;6189035;28;103029;-68
2022/10/20 12:46:57;;;;;;;4.90;4.43;;;;;;;21.55;35.30;95611.13;6180906;28;103156;-69
2022/10/20 12:50:05;;;;;;;4.20;3.90;;;;;;;21.54;35.53;95606.09;6189056;28;105913;-68
2022/10/20 12:53:14;;;;;;;4.50;4.20;;;;;;;21.53;35.31;95613.28;6189034;28;103419;-68
2022/10/20 12:56:20;;;;;;;4.40;4.10;;;;;;;21.49;35.42;95605.06;6176140;28;103109;-68
2022/10/20 12:59:46;;;;;;;4.30;4.00;;;;;;;21.50;35.20;95614.63;6188778;28;102975;-68
2022/10/20 13:02:51;;;;;;;4.80;4.50;;;;;;;21.49;35.29;95605.06;6189238;28;103096;-67
2022/10/20 13:05:54;;;;;;;4.30;4.00;;;;;;;21.47;35.29;95623.22;6188772;28;102984;-69
2022/10/20 13:09:23;;;;;;;4.00;3.77;;;;;;;21.48;35.42;95610.69;6177774;28;103495;-68
2022/10/20 13:12:29;;;;;;;4.37;4.07;;;;;;;21.47;35.54;95603.78;6188382;28;103152;-68
2022/10/20 13:15:37;;;;;;;4.60;4.30;;;;;;;21.48;35.45;95611.47;6188335;28;103280;-69
2022/10/20 13:18:48;;;;;;;4.47;4.07;;;;;;;21.46;35.17;95615.50;6178336;28;103065;-69
2022/10/20 13:21:51;;;;;;;4.70;4.40;;;;;;;21.44;34.90;95613.13;6188119;28;103076;-67
2022/10/20 13:24:56;;;;;;;4.77;3.80;;;;;;;21.45;35.04;95608.59;6187950;28;102967;-67
2022/10/20 13:28:07;;;;;;;4.00;3.77;;;;;;;21.44;35.28;95607.81;6188258;28;103036;-68
2022/10/20 13:31:24;;;;;;;4.27;3.97;;;;;;;21.43;35.00;95608.91;6177352;28;103159;-68
2022/10/20 13:34:32;;;;;;;4.40;4.10;;;;;;;21.41;35.19;95605.72;6188088;28;103369;-68
2022/10/20 13:37:52;;;;;;;4.33;3.93;;;;;;;21.41;35.43;95608.38;6188005;28;102819;-68
2022/10/20 13:41:03;;;;;;;4.00;3.70;;;;;;;21.40;34.87;95609.47;6183194;28;105392;-68
2022/10/20 13:44:20;;;;;;;4.57;4.27;;;;;;;21.38;34.90;95608.97;6182882;28;103100;-67
2022/10/20 13:47:46;;;;;;;4.53;4.13;;;;;;;21.38;34.78;95611.63;6187167;28;102896;-67
2022/10/20 13:50:55;;;;;;;4.23;3.77;;;;;;;21.38;35.00;95610.84;6187918;28;103465;-67
2022/10/20 13:54:01;;;;;;;3.70;3.50;;;;;;;21.36;35.01;95613.00;6177050;28;103672;-67
2022/10/20 13:57:04;;;;;;;4.30;3.60;;;;;;;21.34;35.27;95610.63;6187346;28;103566;-67
2022/10/20 14:00:18;;;;;;;5.77;4.03;;;;;;;21.33;35.04;95605.56;6187652;28;105291;-68
2022/10/20 14:03:23;;;;;;;4.50;4.20;;;;;;;21.31;35.18;95611.19;6185264;28;103415;-68
2022/10/20 14:06:33;;;;;;;4.30;3.90;;;;;;;21.32;35.19;95622.63;6182430;28;103896;-67
2022/10/20 14:09:36;;;;;;;4.50;4.20;;;;;;;21.30;34.55;95614.91;6187021;28;103192;-68
2022/10/20 14:12:45;;;;;;;4.90;4.50;;;;;;;21.29;34.71;95615.22;6187392;28;103326;-68
2022/10/20 14:15:52;;;;;;;4.83;4.20;;;;;;;21.29;34.67;95615.22;6178331;28;105844;-68
2022/10/20 14:19:05;;;;;;;5.27;4.30;;;;;;;21.27;34.67;95610.16;6187653;28;105945;-68
2022/10/20 14:22:17;;;;;;;5.47;4.33;;;;;;;21.27;35.10;95620.03;6186711;28;103159;-68
2022/10/20 14:25:21;;;;;;;4.50;4.10;;;;;;;21.25;34.87;95611.53;6186403;28;103628;-68
2022/10/20 14:28:26;;;;;;;4.73;4.33;;;;;;;21.24;34.58;95608.09;6175920;28;102998;-68